createdAt,value
2018-11-27T00:02:17.639Z,96.82
2018-11-27T00:04:44.816Z,96.73
2018-11-27T00:07:12.025Z,96.71
2018-11-27T00:09:39.185Z,96.26
2018-11-27T00:12:06.394Z,96.75
2018-11-27T00:14:33.599Z,96.88
2018-11-27T00:17:00.814Z,97.32
2018-11-27T00:19:27.955Z,97.42
2018-11-27T00:21:55.136Z,97.69
2018-11-27T00:24:22.305Z,97.73
2018-11-27T00:26:49.530Z,97.40
2018-11-27T00:29:16.745Z,98.07
2018-11-27T00:31:43.927Z,98.08
2018-11-27T00:34:11.123Z,98.36
2018-11-27T00:36:38.277Z,98.40
2018-11-27T00:39:07.739Z,97.87
2018-11-27T00:41:35.758Z,98.31
2018-11-27T00:44:03.023Z,98.65
2018-11-27T00:46:30.217Z,98.10
2018-11-27T00:48:57.383Z,98.88
2018-11-27T00:51:24.546Z,98.81
2018-11-27T00:53:51.723Z,98.68
2018-11-27T00:56:18.916Z,98.66
2018-11-27T00:58:46.118Z,97.62
2018-11-27T01:01:13.243Z,98.07
2018-11-27T01:03:40.413Z,98.14
2018-11-27T01:06:07.554Z,98.95
2018-11-27T01:08:34.722Z,97.71
2018-11-27T01:11:01.939Z,98.98
2018-11-27T01:13:29.134Z,99.08
2018-11-27T01:15:56.324Z,98.47
2018-11-27T01:18:23.507Z,98.87
2018-11-27T01:20:50.770Z,98.98
2018-11-27T01:23:17.951Z,99.07
2018-11-27T01:25:45.175Z,98.22
2018-11-27T01:28:12.394Z,98.65
2018-11-27T01:30:39.604Z,98.55
2018-11-27T01:33:06.810Z,98.81
2018-11-27T01:35:34.063Z,98.62
2018-11-27T01:38:01.247Z,98.48
2018-11-27T01:40:28.456Z,98.71
2018-11-27T01:42:56.497Z,99.15
2018-11-27T01:45:24.262Z,98.76
2018-11-27T01:47:51.517Z,98.66
2018-11-27T01:50:19.257Z,98.25
2018-11-27T01:52:46.535Z,98.51
2018-11-27T01:55:14.503Z,99.17
2018-11-27T01:57:41.696Z,99.12
2018-11-27T02:00:22.399Z,99.48
2018-11-27T02:02:49.908Z,99.04
2018-11-27T02:05:17.138Z,98.57
2018-11-27T02:07:44.286Z,97.98
2018-11-27T02:10:11.955Z,98.50
2018-11-27T02:12:40.046Z,97.49
2018-11-27T02:15:09.470Z,98.47
2018-11-27T02:17:36.687Z,98.29
2018-11-27T02:20:04.623Z,98.58
2018-11-27T02:22:31.851Z,98.59
2018-11-27T02:24:58.991Z,98.72
2018-11-27T02:27:26.198Z,99.33
2018-11-27T02:29:53.383Z,98.54
2018-11-27T02:32:20.544Z,99.19
2018-11-27T02:34:47.709Z,99.45
2018-11-27T02:37:14.962Z,99.70
2018-11-27T02:39:42.154Z,99.73
2018-11-27T02:42:09.359Z,100.00
2018-11-27T02:44:36.547Z,100.00
2018-11-27T02:47:03.790Z,100.00
2018-11-27T02:49:30.977Z,100.00
2018-11-27T02:51:58.149Z,100.00
2018-11-27T02:54:25.299Z,99.56
2018-11-27T02:56:52.460Z,100.00
2018-11-27T02:59:19.639Z,100.00
2018-11-27T03:01:46.824Z,100.00
2018-11-27T03:04:13.981Z,100.00
2018-11-27T03:06:41.139Z,100.00
2018-11-27T03:09:08.719Z,100.00
2018-11-27T03:11:36.133Z,100.00
2018-11-27T03:14:03.409Z,100.00
2018-11-27T03:16:30.634Z,100.00
2018-11-27T03:18:57.814Z,100.00
2018-11-27T03:21:25.004Z,100.00
2018-11-27T03:23:52.185Z,100.00
2018-11-27T03:26:19.394Z,100.00
2018-11-27T03:28:46.572Z,100.00
2018-11-27T03:31:13.741Z,100.00
2018-11-27T03:33:40.942Z,100.00
2018-11-27T03:36:08.142Z,100.00
2018-11-27T03:38:35.325Z,100.00
2018-11-27T03:41:02.616Z,100.00
2018-11-27T03:43:29.809Z,100.00
2018-11-27T03:45:57.021Z,100.00
2018-11-27T03:48:24.204Z,100.00
2018-11-27T03:50:51.387Z,100.00
2018-11-27T03:53:18.570Z,100.00
2018-11-27T03:55:45.874Z,100.00
2018-11-27T03:58:13.106Z,100.00
2018-11-27T04:00:40.304Z,100.00
2018-11-27T04:03:09.775Z,100.00
2018-11-27T04:05:37.360Z,100.00
2018-11-27T04:08:05.774Z,100.00
2018-11-27T04:10:32.992Z,100.00
2018-11-27T04:13:00.214Z,100.00
2018-11-27T04:15:27.469Z,100.00
2018-11-27T04:17:54.621Z,100.00
2018-11-27T04:20:21.765Z,100.00
2018-11-27T04:22:48.935Z,100.00
2018-11-27T04:25:16.875Z,100.00
2018-11-27T04:27:44.735Z,100.00
2018-11-27T04:30:12.961Z,100.00
2018-11-27T04:32:40.413Z,100.00
2018-11-27T04:35:09.056Z,100.00
2018-11-27T04:37:36.204Z,100.00
2018-11-27T04:40:04.027Z,100.00
2018-11-27T04:42:31.170Z,100.00
2018-11-27T04:44:58.383Z,100.00
2018-11-27T04:47:25.588Z,100.00
2018-11-27T04:49:52.771Z,100.00
2018-11-27T04:52:19.894Z,100.00
2018-11-27T04:54:47.079Z,100.00
2018-11-27T04:57:14.260Z,100.00
2018-11-27T04:59:41.447Z,100.00
2018-11-27T05:02:08.638Z,100.00
2018-11-27T05:04:35.851Z,100.00
2018-11-27T05:07:03.071Z,100.00
2018-11-27T05:09:30.419Z,100.00
2018-11-27T05:11:57.574Z,100.00
2018-11-27T05:14:24.701Z,100.00
2018-11-27T05:16:51.836Z,100.00
2018-11-27T05:19:19.015Z,100.00
2018-11-27T05:21:46.167Z,100.00
2018-11-27T05:24:13.348Z,100.00
2018-11-27T05:26:40.542Z,100.00
2018-11-27T05:29:07.682Z,100.00
2018-11-27T05:31:34.861Z,100.00
2018-11-27T05:34:02.022Z,100.00
2018-11-27T05:36:29.203Z,100.00
2018-11-27T05:38:56.410Z,100.00
2018-11-27T05:41:23.629Z,100.00
2018-11-27T05:43:50.730Z,100.00
2018-11-27T05:46:17.931Z,100.00
2018-11-27T05:48:45.156Z,100.00
2018-11-27T05:51:12.377Z,100.00
2018-11-27T05:53:39.608Z,100.00
2018-11-27T05:56:06.764Z,100.00
2018-11-27T05:58:33.948Z,100.00
2018-11-27T06:01:01.157Z,100.00
2018-11-27T06:03:28.337Z,100.00
2018-11-27T06:05:55.527Z,100.00
2018-11-27T06:08:22.666Z,100.00
2018-11-27T06:10:49.876Z,100.00
2018-11-27T06:13:17.094Z,100.00
2018-11-27T06:15:44.331Z,100.00
2018-11-27T06:18:11.491Z,100.00
2018-11-27T06:20:38.642Z,100.00
2018-11-27T06:23:05.906Z,100.00
2018-11-27T06:25:33.139Z,100.00
2018-11-27T06:28:03.317Z,100.00
2018-11-27T06:30:31.694Z,100.00
2018-11-27T06:32:58.880Z,100.00
2018-11-27T06:35:28.354Z,100.00
2018-11-27T06:37:55.543Z,100.00
2018-11-27T06:40:24.005Z,100.00
2018-11-27T06:42:51.186Z,100.00
2018-11-27T06:45:19.087Z,100.00
2018-11-27T06:47:47.276Z,100.00
2018-11-27T06:50:15.049Z,100.00
2018-11-27T06:52:42.215Z,100.00
2018-11-27T06:55:10.692Z,100.00
2018-11-27T06:57:37.855Z,100.00
2018-11-27T07:00:09.845Z,100.00
2018-11-27T07:02:37.968Z,100.00
2018-11-27T07:05:04.867Z,100.00
2018-11-27T07:07:32.039Z,100.00
2018-11-27T07:09:59.234Z,100.00
2018-11-27T07:12:26.400Z,100.00
2018-11-27T07:14:53.593Z,100.00
2018-11-27T07:17:20.852Z,99.59
2018-11-27T07:19:48.034Z,99.48
2018-11-27T07:22:15.238Z,99.48
2018-11-27T07:24:42.446Z,100.00
2018-11-27T07:27:09.618Z,99.97
2018-11-27T07:29:36.746Z,99.49
2018-11-27T07:32:09.291Z,99.23
2018-11-27T07:34:31.327Z,99.88
2018-11-27T07:36:58.542Z,100.00
2018-11-27T07:39:25.798Z,100.00
2018-11-27T07:41:52.951Z,100.00
2018-11-27T07:44:20.146Z,100.00
2018-11-27T07:46:47.322Z,100.00
2018-11-27T07:49:14.476Z,100.00
2018-11-27T07:51:41.672Z,100.00
2018-11-27T07:54:08.855Z,100.00
2018-11-27T07:56:36.023Z,100.00
2018-11-27T07:59:03.184Z,100.00
2018-11-27T08:01:30.353Z,100.00
2018-11-27T08:03:57.533Z,100.00
2018-11-27T08:06:24.737Z,100.00
2018-11-27T08:08:51.898Z,100.00
2018-11-27T08:11:19.086Z,100.00
2018-11-27T08:13:46.405Z,99.46
2018-11-27T08:16:13.553Z,99.38
2018-11-27T08:18:47.490Z,99.58
2018-11-27T08:21:14.730Z,100.00
2018-11-27T08:23:41.912Z,99.34
2018-11-27T08:26:09.137Z,98.68
2018-11-27T08:28:36.280Z,98.16
2018-11-27T08:31:03.432Z,97.94
2018-11-27T08:33:30.626Z,100.00
2018-11-27T08:35:57.746Z,97.51
2018-11-27T08:38:24.970Z,96.89
2018-11-27T08:40:52.115Z,96.97
2018-11-27T08:43:19.267Z,97.58
2018-11-27T08:45:46.436Z,97.58
2018-11-27T08:48:13.608Z,97.12
2018-11-27T08:50:40.806Z,97.14
2018-11-27T08:53:07.983Z,97.83
2018-11-27T08:55:37.779Z,97.29
2018-11-27T08:58:10.475Z,96.98
2018-11-27T09:00:37.627Z,96.90
2018-11-27T09:03:05.174Z,96.70
2018-11-27T09:05:32.361Z,95.78
2018-11-27T09:07:59.553Z,95.57
2018-11-27T09:10:26.711Z,95.58
2018-11-27T09:12:53.910Z,95.03
2018-11-27T09:15:21.878Z,95.50
2018-11-27T09:17:55.636Z,95.72
2018-11-27T09:20:22.855Z,95.01
2018-11-27T09:22:50.077Z,95.47
2018-11-27T09:25:17.312Z,95.29
2018-11-27T09:27:44.467Z,95.57
2018-11-27T09:30:15.826Z,94.94
2018-11-27T09:32:43.010Z,94.74
2018-11-27T09:35:10.286Z,94.18
2018-11-27T09:37:37.507Z,93.54
2018-11-27T09:40:07.265Z,93.72
2018-11-27T09:42:34.432Z,93.89
2018-11-27T09:45:01.560Z,93.78
2018-11-27T09:47:28.762Z,92.67
2018-11-27T09:49:55.990Z,93.25
2018-11-27T09:52:23.170Z,92.97
2018-11-27T09:54:50.302Z,92.70
2018-11-27T09:57:17.490Z,92.33
2018-11-27T09:59:44.681Z,91.86
2018-11-27T10:02:11.835Z,90.85
2018-11-27T10:04:38.959Z,90.32
2018-11-27T10:07:06.129Z,89.87
2018-11-27T10:09:33.306Z,90.32
2018-11-27T10:12:00.479Z,90.14
2018-11-27T10:14:27.621Z,90.64
2018-11-27T10:16:54.798Z,90.15
2018-11-27T10:19:26.744Z,89.70
2018-11-27T10:21:49.538Z,89.59
2018-11-27T10:24:16.736Z,88.90
2018-11-27T10:26:44.966Z,89.52
2018-11-27T10:29:12.144Z,88.58
2018-11-27T10:31:39.619Z,88.69
2018-11-27T10:34:06.859Z,89.26
2018-11-27T10:36:35.151Z,88.75
2018-11-27T10:39:02.827Z,89.78
2018-11-27T10:41:30.286Z,89.58
2018-11-27T10:43:58.245Z,88.80
2018-11-27T10:46:25.415Z,87.75
2018-11-27T10:48:52.919Z,87.62
2018-11-27T10:51:21.095Z,87.99
2018-11-27T10:53:50.021Z,87.38
2018-11-27T10:56:17.139Z,86.64
2018-11-27T10:58:44.307Z,87.00
2018-11-27T11:01:18.796Z,86.54
2018-11-27T11:03:46.042Z,86.93
2018-11-27T11:06:13.199Z,86.06
2018-11-27T11:08:41.658Z,86.05
2018-11-27T11:11:08.994Z,86.52
2018-11-27T11:13:36.278Z,85.72
2018-11-27T11:16:03.454Z,86.61
2018-11-27T11:18:32.007Z,85.26
2018-11-27T11:20:59.161Z,85.43
2018-11-27T11:23:26.559Z,85.18
2018-11-27T11:25:53.814Z,85.76
2018-11-27T11:28:23.452Z,84.43
2018-11-27T11:30:52.919Z,84.34
2018-11-27T11:33:21.655Z,83.62
2018-11-27T11:35:48.805Z,84.16
2018-11-27T11:38:16.009Z,83.28
2018-11-27T11:40:43.202Z,83.72
2018-11-27T11:43:10.448Z,82.79
2018-11-27T11:45:37.640Z,83.34
2018-11-27T11:48:07.135Z,84.83
2018-11-27T11:50:34.640Z,84.70
2018-11-27T11:53:04.615Z,85.20
2018-11-27T11:55:31.805Z,85.10
2018-11-27T11:58:00.031Z,85.07
2018-11-27T12:00:32.043Z,84.51
2018-11-27T12:02:59.732Z,84.82
2018-11-27T12:05:26.899Z,83.50
2018-11-27T12:07:54.079Z,83.75
2018-11-27T12:10:22.859Z,83.75
2018-11-27T12:12:52.747Z,84.12
2018-11-27T12:15:21.177Z,83.80
2018-11-27T12:17:49.559Z,83.76
2018-11-27T12:20:17.779Z,82.91
2018-11-27T12:22:48.942Z,82.93
2018-11-27T12:25:16.164Z,82.97
2018-11-27T12:27:43.419Z,82.63
2018-11-27T12:30:15.506Z,83.09
2018-11-27T12:32:42.666Z,83.31
2018-11-27T12:35:10.783Z,83.82
2018-11-27T12:37:38.023Z,84.05
2018-11-27T12:40:13.263Z,82.56
2018-11-27T12:42:42.764Z,82.98
2018-11-27T12:45:12.031Z,83.30
2018-11-27T12:47:39.349Z,83.70
2018-11-27T12:51:10.099Z,83.37
2018-11-27T12:53:38.273Z,85.11
2018-11-27T12:56:07.618Z,84.52
2018-11-27T12:58:34.765Z,84.44
2018-11-27T13:01:03.527Z,85.54
2018-11-27T13:03:30.657Z,84.77
2018-11-27T13:05:59.267Z,84.34
2018-11-27T13:08:27.903Z,84.38
2018-11-27T13:10:55.067Z,84.39
2018-11-27T13:13:22.259Z,83.87
2018-11-27T13:15:49.574Z,83.29
2018-11-27T13:18:16.899Z,83.90
2018-11-27T13:20:44.010Z,83.98
2018-11-27T13:23:11.234Z,84.52
2018-11-27T13:25:39.318Z,83.79
2018-11-27T13:28:09.876Z,84.17
2018-11-27T13:31:11.818Z,83.65
2018-11-27T13:33:45.102Z,83.61
2018-11-27T13:36:12.307Z,84.63
2018-11-27T13:38:40.405Z,84.76
2018-11-27T13:41:10.896Z,84.86
2018-11-27T13:43:38.191Z,84.61
2018-11-27T13:46:06.890Z,84.87
2018-11-27T13:48:34.054Z,85.09
2018-11-27T13:51:02.361Z,85.30
2018-11-27T13:53:29.707Z,84.73
2018-11-27T13:55:56.710Z,84.46
2018-11-27T13:58:23.994Z,84.63
2018-11-27T14:00:51.942Z,85.06
2018-11-27T14:03:19.151Z,86.22
2018-11-27T14:05:46.337Z,86.12
2018-11-27T14:08:13.557Z,86.16
2018-11-27T14:10:41.510Z,85.00
2018-11-27T14:13:09.802Z,85.67
2018-11-27T14:15:37.389Z,85.46
2018-11-27T14:18:04.952Z,85.72
2018-11-27T14:20:32.174Z,85.70
2018-11-27T14:23:01.615Z,86.06
2018-11-27T14:25:28.819Z,86.02
2018-11-27T14:27:56.117Z,87.13
2018-11-27T14:30:25.496Z,87.11
2018-11-27T14:32:53.112Z,86.70
2018-11-27T14:35:21.299Z,87.69
2018-11-27T14:37:50.538Z,87.80
2018-11-27T14:40:19.831Z,87.67
2018-11-27T14:42:47.644Z,88.03
2018-11-27T14:45:17.577Z,87.95
2018-11-27T14:47:46.437Z,88.35
2018-11-27T14:50:13.703Z,88.28
2018-11-27T14:52:41.112Z,88.37
2018-11-27T14:55:10.851Z,88.24
2018-11-27T14:57:38.071Z,88.93
2018-11-27T15:00:08.635Z,88.73
2018-11-27T15:02:35.882Z,88.01
2018-11-27T15:05:03.171Z,88.25
2018-11-27T15:07:30.397Z,89.02
2018-11-27T15:09:57.658Z,89.14
2018-11-27T15:12:24.969Z,88.95
2018-11-27T15:14:52.192Z,89.20
2018-11-27T15:17:19.431Z,89.43
2018-11-27T15:19:46.661Z,89.67
2018-11-27T15:22:13.874Z,89.41
2018-11-27T15:24:41.457Z,89.88
2018-11-27T15:27:08.689Z,89.99
2018-11-27T15:29:35.938Z,90.59
2018-11-27T15:32:03.257Z,91.35
2018-11-27T15:34:30.505Z,91.64
2018-11-27T15:36:57.753Z,91.36
2018-11-27T15:39:24.935Z,91.76
2018-11-27T15:41:52.199Z,91.59
2018-11-27T15:44:19.441Z,91.34
2018-11-27T15:46:46.719Z,91.27
2018-11-27T15:49:13.928Z,90.88
2018-11-27T15:51:41.174Z,91.33
2018-11-27T15:54:08.430Z,91.72
2018-11-27T15:56:35.711Z,92.52
2018-11-27T15:59:02.973Z,92.01
2018-11-27T16:01:30.296Z,92.21
2018-11-27T16:03:57.474Z,91.92
2018-11-27T16:06:24.828Z,91.73
2018-11-27T16:08:52.088Z,91.21
2018-11-27T16:11:19.303Z,90.42
2018-11-27T16:13:49.175Z,89.46
2018-11-27T16:16:13.949Z,89.60
2018-11-27T16:18:41.200Z,87.60
2018-11-27T16:21:08.479Z,87.52
2018-11-27T16:23:35.671Z,88.24
2018-11-27T16:26:02.856Z,87.76
2018-11-27T16:28:30.586Z,87.34
2018-11-27T16:31:05.542Z,89.47
2018-11-27T16:33:32.743Z,90.58
2018-11-27T16:35:59.982Z,91.08
2018-11-27T16:38:27.198Z,90.80
2018-11-27T16:40:54.547Z,90.62
2018-11-27T16:43:21.749Z,90.89
2018-11-27T16:45:49.026Z,91.92
2018-11-27T16:48:16.243Z,92.05
2018-11-27T16:50:43.473Z,90.71
2018-11-27T16:53:10.694Z,91.27
2018-11-27T16:55:37.835Z,92.14
2018-11-27T16:58:05.228Z,93.54
2018-11-27T17:00:33.452Z,93.76
2018-11-27T17:03:02.803Z,94.16
2018-11-27T17:05:31.303Z,94.44
2018-11-27T17:07:58.487Z,95.12
2018-11-27T17:10:25.692Z,95.01
2018-11-27T17:12:54.247Z,94.92
2018-11-27T17:15:23.692Z,94.79
2018-11-27T17:17:50.887Z,94.58
2018-11-27T17:20:21.500Z,94.04
2018-11-27T17:22:48.939Z,93.13
2018-11-27T17:25:22.840Z,93.29
2018-11-27T17:27:50.476Z,93.61
2018-11-27T17:30:20.299Z,93.24
2018-11-27T17:32:47.650Z,94.67
2018-11-27T17:35:14.797Z,95.91
2018-11-27T17:37:42.002Z,98.59
2018-11-27T17:40:10.727Z,98.90
2018-11-27T17:42:37.981Z,98.55
2018-11-27T17:45:10.891Z,97.89
2018-11-27T17:47:38.125Z,97.62
2018-11-27T17:50:07.127Z,97.56
2018-11-27T17:52:34.282Z,97.19
2018-11-27T17:55:01.558Z,97.16
2018-11-27T17:57:28.811Z,96.63
2018-11-27T17:59:56.321Z,96.97
2018-11-27T18:02:23.493Z,97.30
2018-11-27T18:04:50.672Z,97.04
2018-11-27T18:07:17.970Z,97.39
2018-11-27T18:09:45.147Z,97.67
2018-11-27T18:12:12.276Z,97.15
2018-11-27T18:14:39.529Z,98.05
2018-11-27T18:17:06.974Z,97.90
2018-11-27T18:19:34.203Z,98.01
2018-11-27T18:22:01.483Z,97.53
2018-11-27T18:24:28.730Z,97.22
2018-11-27T18:26:56.285Z,97.15
2018-11-27T18:29:23.573Z,97.38
2018-11-27T18:31:51.151Z,98.08
2018-11-27T18:34:18.396Z,99.39
2018-11-27T18:36:45.670Z,99.85
2018-11-27T18:39:12.889Z,99.91
2018-11-27T18:41:40.073Z,100.00
2018-11-27T18:44:08.451Z,100.00
2018-11-27T18:46:35.673Z,100.00
2018-11-27T18:49:09.628Z,100.00
2018-11-27T18:51:36.948Z,100.00
2018-11-27T18:54:04.544Z,100.00
2018-11-27T18:56:31.757Z,100.00
2018-11-27T18:58:59.004Z,100.00
2018-11-27T19:01:26.186Z,100.00
2018-11-27T19:03:53.450Z,100.00
2018-11-27T19:06:20.675Z,100.00
2018-11-27T19:08:47.861Z,100.00
2018-11-27T19:11:15.078Z,100.00
2018-11-27T19:13:42.293Z,100.00
2018-11-27T19:16:09.624Z,100.00
2018-11-27T19:18:36.863Z,100.00
2018-11-27T19:21:04.328Z,100.00
2018-11-27T19:23:31.538Z,100.00
2018-11-27T19:25:58.805Z,100.00
2018-11-27T19:28:26.175Z,100.00
2018-11-27T19:30:53.335Z,100.00
2018-11-27T19:33:20.549Z,100.00
2018-11-27T19:35:47.735Z,100.00
2018-11-27T19:38:16.542Z,100.00
2018-11-27T19:40:43.775Z,100.00
2018-11-27T19:43:11.015Z,100.00
2018-11-27T19:58:37.803Z,100.00
2018-11-27T20:01:05.578Z,100.00
2018-11-27T20:03:32.796Z,100.00
2018-11-27T20:06:00.008Z,100.00
2018-11-27T20:08:27.229Z,100.00
2018-11-27T20:10:54.629Z,100.00
2018-11-27T20:13:21.886Z,100.00
2018-11-27T20:15:49.111Z,100.00
2018-11-27T20:18:16.406Z,100.00
2018-11-27T20:20:43.632Z,100.00
2018-11-27T20:23:10.884Z,100.00
2018-11-27T20:25:38.154Z,100.00
2018-11-27T20:28:06.819Z,100.00
2018-11-27T20:30:34.488Z,100.00
2018-11-27T20:33:02.791Z,100.00
2018-11-27T20:35:30.917Z,100.00
2018-11-27T20:38:00.265Z,100.00
2018-11-27T20:40:27.523Z,100.00
2018-11-27T20:42:54.765Z,100.00
2018-11-27T20:45:23.347Z,100.00
2018-11-27T20:47:53.945Z,100.00
2018-11-27T20:50:22.271Z,100.00
2018-11-27T20:52:49.506Z,100.00
2018-11-27T20:55:17.094Z,100.00
2018-11-27T20:57:47.543Z,100.00
2018-11-27T21:00:19.422Z,100.00
2018-11-27T21:02:46.715Z,100.00
2018-11-27T21:05:13.860Z,100.00
2018-11-27T21:07:41.059Z,100.00
2018-11-27T21:10:10.670Z,100.00
2018-11-27T21:12:38.018Z,100.00
2018-11-27T21:15:07.780Z,100.00
2018-11-27T21:17:34.972Z,100.00
2018-11-27T21:20:02.223Z,100.00
2018-11-27T21:22:29.461Z,100.00
2018-11-27T21:24:56.690Z,100.00
2018-11-27T21:27:24.051Z,100.00
2018-11-27T21:29:51.808Z,100.00
2018-11-27T21:32:19.208Z,100.00
2018-11-27T21:34:46.511Z,100.00
2018-11-27T21:37:15.152Z,100.00
2018-11-27T21:39:42.430Z,100.00
2018-11-27T21:42:09.719Z,100.00
2018-11-27T21:44:36.927Z,100.00
2018-11-27T21:47:04.858Z,100.00
2018-11-27T21:49:32.912Z,100.00
2018-11-27T21:52:00.066Z,100.00
2018-11-27T21:54:27.252Z,100.00
2018-11-27T21:56:54.423Z,100.00
2018-11-27T21:59:21.579Z,100.00
2018-11-27T22:01:48.710Z,100.00
2018-11-27T22:04:16.016Z,100.00
2018-11-27T22:06:43.196Z,100.00
2018-11-27T22:09:10.351Z,100.00
2018-11-27T22:11:37.538Z,100.00
2018-11-27T22:14:04.717Z,100.00
2018-11-27T22:16:31.879Z,100.00
2018-11-27T22:18:59.140Z,100.00
2018-11-27T22:21:26.298Z,100.00
2018-11-27T22:23:53.597Z,100.00
2018-11-27T22:26:20.775Z,100.00
2018-11-27T22:28:47.982Z,100.00
2018-11-27T22:31:15.169Z,100.00
2018-11-27T22:33:42.350Z,100.00
2018-11-27T22:36:09.538Z,100.00
2018-11-27T22:38:36.688Z,100.00
2018-11-27T22:41:03.909Z,100.00
2018-11-27T22:43:31.044Z,99.62
2018-11-27T22:45:58.303Z,98.93
2018-11-27T22:48:25.431Z,98.85
2018-11-27T22:50:52.595Z,99.83
2018-11-27T22:53:19.768Z,99.94
2018-11-27T22:55:46.930Z,98.56
2018-11-27T22:58:14.148Z,98.13
2018-11-27T23:00:47.030Z,98.67
2018-11-27T23:03:14.175Z,99.39
2018-11-27T23:05:41.341Z,99.28
2018-11-27T23:08:08.499Z,99.08
2018-11-27T23:10:36.828Z,98.76
2018-11-27T23:13:04.545Z,97.79
2018-11-27T23:15:31.713Z,97.78
2018-11-27T23:17:58.963Z,98.07
2018-11-27T23:20:26.096Z,98.27
2018-11-27T23:22:53.385Z,98.32
2018-11-27T23:25:20.673Z,98.89
2018-11-27T23:27:47.871Z,98.47
2018-11-27T23:30:22.839Z,98.73
2018-11-27T23:32:56.910Z,98.95
2018-11-27T23:35:24.051Z,99.34
2018-11-27T23:37:51.391Z,99.44
2018-11-27T23:40:19.447Z,99.34
2018-11-27T23:42:48.631Z,99.73
2018-11-27T23:45:19.065Z,98.64
2018-11-27T23:47:46.251Z,99.30
2018-11-27T23:50:14.625Z,99.36
2018-11-27T23:52:41.972Z,99.41
2018-11-27T23:55:11.074Z,99.64
2018-11-27T23:57:38.529Z,99.44
